Time;durP1;ratioP1;P1;durP2;ratioP2;P2;SDS_P1;SDS_P2;PMS_P1;PMS_P2;Temp;Humidity;BMP_temperature;BMP_pressure;BME280_temperature;BME280_humidity;BME280_pressure;Samples;Min_cycle;Max_cycle;Signal;HPM_P1;HPM_P2
2021/07/02 00:01:50;;;;;;;38.47;24.43;;;14.80;99.90;;;;;;5099542;28;20617;-76
2021/07/02 00:04:17;;;;;;;41.30;25.33;;;14.80;99.90;;;;;;5098264;28;20679;-76
2021/07/02 00:06:44;;;;;;;37.27;23.37;;;14.80;99.90;;;;;;5101331;28;20650;-76
2021/07/02 00:09:11;;;;;;;39.93;23.87;;;14.80;99.90;;;;;;5094171;28;20311;-76
2021/07/02 00:11:37;;;;;;;43.37;23.40;;;14.70;99.90;;;;;;5104226;28;20241;-76
2021/07/02 00:14:07;;;;;;;38.63;23.87;;;14.70;99.90;;;;;;5102916;28;20316;-76
2021/07/02 00:16:34;;;;;;;36.77;23.40;;;14.70;99.90;;;;;;5102265;28;20719;-76
2021/07/02 00:19:01;;;;;;;37.30;23.17;;;14.60;99.90;;;;;;5110881;27;20214;-76
2021/07/02 00:21:28;;;;;;;36.83;22.87;;;14.60;99.90;;;;;;5109359;28;20226;-76
2021/07/02 00:23:55;;;;;;;39.20;24.17;;;14.60;99.90;;;;;;5091581;28;20638;-76
2021/07/02 00:26:22;;;;;;;38.97;24.37;;;14.60;99.90;;;;;;5108316;28;20625;-79
2021/07/02 00:28:49;;;;;;;40.60;24.87;;;14.60;99.90;;;;;;5109835;28;20603;-76
2021/07/02 00:31:18;;;;;;;39.27;24.20;;;14.50;99.90;;;;;;5095774;28;20260;-76
2021/07/02 00:33:45;;;;;;;39.80;23.83;;;14.50;99.90;;;;;;5105434;28;20284;-77
2021/07/02 00:36:12;;;;;;;42.50;25.20;;;14.50;99.90;;;;;;5110070;28;20249;-76
2021/07/02 00:38:39;;;;;;;44.50;25.83;;;14.60;99.90;;;;;;5106485;28;20293;-76
2021/07/02 00:41:07;;;;;;;44.03;24.27;;;14.50;99.90;;;;;;5102429;28;20314;-76
2021/07/02 00:43:36;;;;;;;45.97;26.03;;;14.50;99.90;;;;;;5094099;28;20290;-76
2021/07/02 00:46:03;;;;;;;44.87;26.27;;;14.60;99.90;;;;;;5102469;28;20190;-76
2021/07/02 00:48:31;;;;;;;45.23;26.57;;;14.60;99.90;;;;;;5096133;28;20293;-76
2021/07/02 00:50:59;;;;;;;51.03;26.73;;;14.60;99.90;;;;;;5101075;28;20205;-76
2021/07/02 00:53:26;;;;;;;53.80;25.93;;;14.70;99.90;;;;;;5111010;28;20286;-76
2021/07/02 00:55:54;;;;;;;46.70;27.30;;;14.70;99.90;;;;;;5094747;28;20662;-76
2021/07/02 00:58:21;;;;;;;50.20;27.40;;;14.70;99.90;;;;;;5093227;28;20261;-76
2021/07/02 01:00:49;;;;;;;48.63;27.50;;;14.60;99.90;;;;;;5099672;28;20201;-76
2021/07/02 01:03:16;;;;;;;48.87;27.13;;;14.60;99.90;;;;;;5104238;28;20202;-76
2021/07/02 01:05:45;;;;;;;46.57;27.07;;;14.60;99.90;;;;;;5109486;28;20281;-76
2021/07/02 01:08:12;;;;;;;48.10;26.83;;;14.60;99.90;;;;;;5108871;28;20224;-76
2021/07/02 01:10:40;;;;;;;50.60;27.27;;;14.50;99.90;;;;;;5111783;28;20676;-76
2021/07/02 01:13:07;;;;;;;49.87;27.23;;;14.50;99.90;;;;;;5099031;28;20225;-76
2021/07/02 01:15:34;;;;;;;57.20;28.63;;;14.50;99.90;;;;;;5101165;28;20205;-76
2021/07/02 01:18:05;;;;;;;49.57;28.33;;;14.50;99.90;;;;;;5109169;28;20301;-76
2021/07/02 01:20:33;;;;;;;52.13;28.27;;;14.50;99.90;;;;;;5108660;28;20204;-77
2021/07/02 01:23:02;;;;;;;50.67;28.27;;;14.50;99.90;;;;;;5108897;28;20275;-76
2021/07/02 01:25:32;;;;;;;55.27;28.93;;;14.50;99.90;;;;;;5107347;28;20293;-76
2021/07/02 01:27:59;;;;;;;51.67;28.27;;;14.40;99.90;;;;;;5098245;28;20241;-76
2021/07/02 01:30:26;;;;;;;49.70;28.10;;;14.40;99.90;;;;;;5100036;28;20234;-76
2021/07/02 01:32:54;;;;;;;51.57;27.20;;;14.30;99.90;;;;;;5102552;28;20240;-76
2021/07/02 01:35:21;;;;;;;54.60;29.40;;;14.20;99.90;;;;;;5109019;28;20195;-76
2021/07/02 01:37:48;;;;;;;56.33;28.97;;;14.10;99.90;;;;;;5108955;28;20249;-76
2021/07/02 01:40:17;;;;;;;50.63;28.80;;;14.10;99.90;;;;;;5108974;28;20238;-76
2021/07/02 01:42:44;;;;;;;51.03;28.37;;;14.10;99.90;;;;;;5110983;28;20612;-76
2021/07/02 01:45:11;;;;;;;51.97;27.47;;;14.00;99.90;;;;;;5104393;28;20194;-76
2021/07/02 01:47:39;;;;;;;54.67;28.60;;;14.00;99.90;;;;;;5100710;28;20230;-76
2021/07/02 01:50:08;;;;;;;57.47;29.83;;;14.00;99.90;;;;;;5092587;28;20635;-76
2021/07/02 01:52:35;;;;;;;59.00;29.53;;;14.00;99.90;;;;;;5108897;28;20557;-76
2021/07/02 01:55:02;;;;;;;55.43;28.17;;;14.00;99.90;;;;;;5102712;28;20197;-76
2021/07/02 01:57:30;;;;;;;55.00;29.27;;;14.00;99.90;;;;;;5104331;28;20857;-76
2021/07/02 01:59:57;;;;;;;49.53;27.70;;;13.90;99.90;;;;;;5092629;28;20230;-76
2021/07/02 02:02:25;;;;;;;50.40;27.43;;;13.90;99.90;;;;;;5093128;28;20230;-76
2021/07/02 02:04:51;;;;;;;55.17;28.20;;;13.80;99.90;;;;;;5106631;28;20236;-76
2021/07/02 02:07:19;;;;;;;54.07;28.30;;;13.90;99.90;;;;;;5093046;28;20229;-76
2021/07/02 02:09:45;;;;;;;53.23;28.30;;;13.80;99.90;;;;;;5098163;28;20220;-76
2021/07/02 02:12:13;;;;;;;56.23;28.13;;;13.80;99.90;;;;;;5104647;28;20273;-76
2021/07/02 02:14:41;;;;;;;52.63;27.70;;;13.70;99.90;;;;;;5098962;28;20225;-76
2021/07/02 02:17:08;;;;;;;53.23;27.77;;;13.70;99.90;;;;;;5091914;28;20305;-76
2021/07/02 02:19:35;;;;;;;49.97;27.00;;;13.70;99.90;;;;;;5105749;28;20612;-75
2021/07/02 02:22:03;;;;;;;50.70;27.07;;;13.60;99.90;;;;;;5092061;28;20737;-76
2021/07/02 02:24:30;;;;;;;49.97;27.00;;;13.50;99.90;;;;;;5091287;28;20281;-76
2021/07/02 02:26:57;;;;;;;48.67;25.77;;;13.50;99.90;;;;;;5092715;28;20222;-76
2021/07/02 02:29:25;;;;;;;56.33;27.63;;;13.50;99.90;;;;;;5091962;28;20236;-76
2021/07/02 02:31:54;;;;;;;47.90;26.23;;;13.50;99.90;;;;;;5105694;28;20282;-76
2021/07/02 02:34:21;;;;;;;48.20;25.77;;;13.40;99.90;;;;;;5092301;28;20281;-76
2021/07/02 02:36:48;;;;;;;50.43;27.87;;;13.40;99.90;;;;;;5095351;28;20657;-76
2021/07/02 02:39:15;;;;;;;58.70;28.20;;;13.40;99.90;;;;;;5110564;28;20330;-76
2021/07/02 02:41:42;;;;;;;51.47;27.60;;;13.30;99.90;;;;;;5108549;28;20656;-76
2021/07/02 02:44:09;;;;;;;55.77;27.47;;;13.20;99.90;;;;;;5104040;28;20277;-76
2021/07/02 02:46:36;;;;;;;52.13;26.70;;;13.30;99.90;;;;;;5095968;28;20225;-76
2021/07/02 02:49:05;;;;;;;55.87;27.87;;;13.20;99.90;;;;;;5104529;28;20198;-76
2021/07/02 02:51:32;;;;;;;51.13;25.77;;;13.30;99.90;;;;;;5111942;28;20270;-76
2021/07/02 02:53:59;;;;;;;54.53;27.70;;;13.20;99.90;;;;;;5111798;28;20641;-76
2021/07/02 02:56:26;;;;;;;54.07;28.50;;;13.20;99.90;;;;;;5108082;28;20253;-76
2021/07/02 02:58:53;;;;;;;53.67;27.00;;;13.30;99.90;;;;;;5109945;28;20268;-76
2021/07/02 03:01:20;;;;;;;52.50;28.60;;;13.20;99.90;;;;;;5112166;28;20233;-76
2021/07/02 03:03:47;;;;;;;54.37;27.63;;;13.20;99.90;;;;;;5111421;28;20202;-76
2021/07/02 03:06:15;;;;;;;52.53;27.47;;;13.10;99.90;;;;;;5105628;28;20282;-76
2021/07/02 03:08:42;;;;;;;55.87;28.67;;;13.20;99.90;;;;;;5111795;28;20205;-76
2021/07/02 03:11:09;;;;;;;55.97;27.83;;;13.20;99.90;;;;;;5110320;28;20240;-76
2021/07/02 03:13:36;;;;;;;52.30;26.53;;;13.20;99.90;;;;;;5091205;28;20684;-76
2021/07/02 03:16:05;;;;;;;54.47;27.50;;;13.10;99.90;;;;;;5090445;28;20281;-76
2021/07/02 03:18:32;;;;;;;56.93;27.77;;;13.10;99.90;;;;;;5094435;28;20225;-76
2021/07/02 03:20:58;;;;;;;52.80;27.70;;;13.10;99.90;;;;;;5090349;28;20709;-76
2021/07/02 03:23:27;;;;;;;57.07;27.10;;;13.00;99.90;;;;;;5090885;28;20252;-75
2021/07/02 03:25:54;;;;;;;52.07;27.27;;;13.10;99.90;;;;;;5090575;28;20289;-76
2021/07/02 03:28:21;;;;;;;51.57;26.80;;;13.10;99.90;;;;;;5090942;28;20789;-76
2021/07/02 03:30:48;;;;;;;51.00;26.13;;;13.00;99.90;;;;;;5093042;28;20609;-75
2021/07/02 03:33:14;;;;;;;52.20;27.00;;;13.00;99.90;;;;;;5110228;28;20292;-75
2021/07/02 03:35:41;;;;;;;53.83;26.70;;;13.00;99.90;;;;;;5092572;28;20226;-76
2021/07/02 03:38:08;;;;;;;53.57;27.33;;;13.00;99.90;;;;;;5099148;28;20233;-75
2021/07/02 03:40:37;;;;;;;56.07;26.90;;;13.00;99.90;;;;;;5102843;28;20273;-76
2021/07/02 03:43:04;;;;;;;51.70;26.73;;;13.00;99.90;;;;;;5114909;28;20234;-75
2021/07/02 03:45:31;;;;;;;51.33;26.93;;;13.00;99.90;;;;;;5108345;28;20230;-75
2021/07/02 03:47:57;;;;;;;52.90;25.93;;;13.00;99.90;;;;;;5094777;28;20612;-76
2021/07/02 03:50:24;;;;;;;54.20;26.70;;;13.00;99.90;;;;;;5106072;28;20675;-76
2021/07/02 03:52:51;;;;;;;51.67;26.47;;;12.90;99.90;;;;;;5111009;28;20224;-76
2021/07/02 03:55:18;;;;;;;55.00;27.33;;;12.90;99.90;;;;;;5106108;28;20198;-76
2021/07/02 03:57:46;;;;;;;55.93;26.73;;;12.90;99.90;;;;;;5112085;28;20272;-76
2021/07/02 04:00:14;;;;;;;58.43;27.80;;;12.90;99.90;;;;;;5107614;28;20280;-76
2021/07/02 04:02:41;;;;;;;53.77;26.97;;;12.90;99.90;;;;;;5098171;28;20294;-76
2021/07/02 04:05:09;;;;;;;56.23;27.67;;;12.90;99.90;;;;;;5095477;28;20247;-76
2021/07/02 04:07:36;;;;;;;51.20;26.17;;;12.90;99.90;;;;;;5098386;28;20306;-76
2021/07/02 04:10:04;;;;;;;55.03;26.23;;;12.90;99.90;;;;;;5095577;28;20545;-76
2021/07/02 04:12:31;;;;;;;53.80;27.07;;;12.90;99.90;;;;;;5106174;28;20736;-75
2021/07/02 04:15:00;;;;;;;54.87;26.67;;;12.90;99.90;;;;;;5103959;28;20607;-75
2021/07/02 04:17:27;;;;;;;60.40;27.87;;;13.00;99.90;;;;;;5093650;28;20309;-76
2021/07/02 04:19:54;;;;;;;59.50;28.00;;;13.00;99.90;;;;;;5105632;28;20596;-75
2021/07/02 04:22:21;;;;;;;52.03;26.43;;;13.10;99.90;;;;;;5114267;28;20305;-76
2021/07/02 04:24:47;;;;;;;53.83;26.70;;;13.10;99.90;;;;;;5114445;27;20272;-75
2021/07/02 04:27:15;;;;;;;47.13;25.40;;;13.10;99.90;;;;;;5104643;28;20619;-76
2021/07/02 04:29:44;;;;;;;46.70;25.20;;;13.20;99.90;;;;;;5100883;28;20234;-75
2021/07/02 04:32:12;;;;;;;49.20;25.27;;;13.20;99.90;;;;;;5104183;28;20309;-75
2021/07/02 04:34:39;;;;;;;49.20;25.17;;;13.30;99.90;;;;;;5111109;28;20229;-76
2021/07/02 04:37:06;;;;;;;49.50;24.83;;;13.40;99.90;;;;;;5104912;28;20248;-75
2021/07/02 04:39:33;;;;;;;44.07;24.40;;;13.40;99.90;;;;;;5105011;28;20286;-76
2021/07/02 04:42:00;;;;;;;43.80;24.23;;;13.50;99.90;;;;;;5094504;28;20238;-75
2021/07/02 04:44:27;;;;;;;39.57;23.77;;;13.50;99.90;;;;;;5101637;28;20241;-76
2021/07/02 04:46:53;;;;;;;40.47;23.70;;;13.50;99.90;;;;;;5113383;27;20285;-76
2021/07/02 04:49:22;;;;;;;39.80;23.13;;;13.50;99.90;;;;;;5099482;28;20285;-76
2021/07/02 04:51:49;;;;;;;38.93;22.03;;;13.50;99.90;;;;;;5103288;28;20677;-76
2021/07/02 04:54:17;;;;;;;36.63;21.77;;;13.50;99.90;;;;;;5103991;28;20230;-75
2021/07/02 04:56:47;;;;;;;33.30;20.70;;;13.40;99.90;;;;;;5093818;28;20290;-75
2021/07/02 04:59:15;;;;;;;36.27;21.33;;;13.50;99.90;;;;;;5099027;28;20732;-76
2021/07/02 05:01:42;;;;;;;35.53;20.57;;;13.50;99.90;;;;;;5112124;28;20511;-76
2021/07/02 05:04:09;;;;;;;33.13;20.53;;;13.50;99.90;;;;;;5106014;28;20262;-76
2021/07/02 05:06:37;;;;;;;33.10;20.87;;;13.40;99.90;;;;;;5096587;28;20285;-75
2021/07/02 05:09:06;;;;;;;30.60;19.87;;;13.50;99.90;;;;;;5106561;28;20229;-75
2021/07/02 05:11:33;;;;;;;33.47;20.30;;;13.40;99.90;;;;;;5100395;28;20715;-75
2021/07/02 05:14:00;;;;;;;33.40;20.67;;;13.50;99.90;;;;;;5103431;28;20198;-76
2021/07/02 05:16:27;;;;;;;31.57;20.53;;;13.50;99.90;;;;;;5105915;27;20282;-75
2021/07/02 05:18:54;;;;;;;30.87;20.70;;;13.60;99.90;;;;;;5098375;28;20305;-75
2021/07/02 05:21:21;;;;;;;32.00;19.83;;;13.70;99.90;;;;;;5100223;28;20246;-75
2021/07/02 05:23:49;;;;;;;32.97;19.80;;;13.70;99.90;;;;;;5097969;28;20206;-75
2021/07/02 05:26:16;;;;;;;29.63;20.03;;;13.70;99.90;;;;;;5098710;28;20764;-74
2021/07/02 05:28:43;;;;;;;29.93;19.13;;;13.80;99.90;;;;;;5099594;28;20218;-75
2021/07/02 05:31:10;;;;;;;28.77;19.13;;;13.90;99.90;;;;;;5100267;28;20305;-75
2021/07/02 05:33:37;;;;;;;27.83;19.10;;;13.90;99.90;;;;;;5100877;28;20193;-75
2021/07/02 05:36:04;;;;;;;29.20;18.93;;;13.90;99.90;;;;;;5097687;28;20234;-75
2021/07/02 05:38:31;;;;;;;25.57;18.47;;;14.00;99.90;;;;;;5101372;28;20222;-74
2021/07/02 05:40:59;;;;;;;24.40;18.33;;;14.00;99.90;;;;;;5100894;28;20624;-75
2021/07/02 05:43:26;;;;;;;26.10;18.13;;;14.10;99.90;;;;;;5100660;28;20207;-75
2021/07/02 05:45:53;;;;;;;25.03;18.57;;;14.30;99.90;;;;;;5097813;28;20237;-75
2021/07/02 05:48:23;;;;;;;22.90;17.57;;;14.80;99.90;;;;;;5098407;28;20222;-75
2021/07/02 05:50:50;;;;;;;20.13;15.87;;;15.20;99.90;;;;;;5097704;28;20202;-75
2021/07/02 05:53:18;;;;;;;18.57;15.43;;;16.00;99.90;;;;;;5098774;28;20230;-74
2021/07/02 05:55:45;;;;;;;19.23;15.13;;;16.50;99.90;;;;;;5102416;28;20194;-75
2021/07/02 05:58:13;;;;;;;18.30;15.23;;;17.30;99.90;;;;;;5098984;28;20261;-75
2021/07/02 06:00:40;;;;;;;17.40;13.90;;;18.10;99.90;;;;;;5096945;28;20195;-75
2021/07/02 06:03:07;;;;;;;14.40;12.83;;;19.20;99.90;;;;;;5100558;28;20208;-75
2021/07/02 06:05:35;;;;;;;15.30;13.55;;;19.90;99.90;;;;;;5100197;28;20225;-75
2021/07/02 06:08:03;;;;;;;13.95;12.52;;;20.20;99.90;;;;;;5100460;28;20260;-75
2021/07/02 06:10:30;;;;;;;13.73;12.32;;;20.20;99.90;;;;;;5099736;28;20198;-75
2021/07/02 06:12:58;;;;;;;13.32;11.93;;;20.50;99.90;;;;;;5096859;28;20195;-75
2021/07/02 06:15:26;;;;;;;13.05;11.63;;;20.40;99.90;;;;;;5099185;28;20247;-74
2021/07/02 06:17:54;;;;;;;12.48;11.18;;;20.60;99.90;;;;;;5099703;28;20248;-75
2021/07/02 06:20:24;;;;;;;12.23;10.93;;;21.00;99.90;;;;;;5097395;28;20213;-75
2021/07/02 06:22:52;;;;;;;12.68;11.27;;;21.60;99.90;;;;;;5099369;28;20742;-75
2021/07/02 06:25:19;;;;;;;12.20;10.90;;;21.60;99.90;;;;;;5096769;28;20233;-75
2021/07/02 06:27:46;;;;;;;13.48;11.13;;;22.00;99.90;;;;;;5098135;28;20198;-75
2021/07/02 06:30:14;;;;;;;11.80;10.60;;;21.20;99.90;;;;;;5098563;28;20735;-74
2021/07/02 06:32:42;;;;;;;12.75;11.45;;;21.50;99.90;;;;;;5099502;28;20647;-75
2021/07/02 06:35:10;;;;;;;11.73;10.63;;;22.30;99.90;;;;;;5100549;28;20274;-76
2021/07/02 06:37:37;;;;;;;10.90;9.90;;;22.30;99.90;;;;;;5100675;28;20350;-75
2021/07/02 06:40:05;;;;;;;12.60;11.30;;;22.60;99.90;;;;;;5094229;28;20226;-74
2021/07/02 06:42:32;;;;;;;11.40;10.27;;;22.20;99.90;;;;;;5098298;28;20206;-76
2021/07/02 06:44:59;;;;;;;11.27;10.18;;;22.60;99.90;;;;;;5098183;28;20234;-75
2021/07/02 06:47:26;;;;;;;11.85;10.70;;;23.20;99.90;;;;;;5101478;28;20226;-74
2021/07/02 06:49:55;;;;;;;11.65;10.48;;;23.20;99.90;;;;;;5099095;28;20688;-75
2021/07/02 06:52:22;;;;;;;11.55;10.20;;;23.30;99.90;;;;;;5101731;28;20231;-75
2021/07/02 06:54:48;;;;;;;11.35;9.93;;;23.50;99.90;;;;;;5098719;28;20240;-75
2021/07/02 06:57:16;;;;;;;11.40;10.30;;;23.30;99.90;;;;;;5098360;28;20273;-75
2021/07/02 06:59:43;;;;;;;10.25;9.32;;;24.40;99.90;;;;;;5098126;28;20202;-76
2021/07/02 07:02:12;;;;;;;11.13;9.85;;;24.20;99.90;;;;;;5101707;28;20218;-76
2021/07/02 07:04:39;;;;;;;10.25;9.20;;;24.90;99.90;;;;;;5096582;28;20288;-75
2021/07/02 07:07:09;;;;;;;10.10;9.18;;;25.40;99.90;;;;;;5096399;28;20273;-75
2021/07/02 07:09:37;;;;;;;10.02;9.00;;;25.80;99.90;;;;;;5099526;28;20221;-75
2021/07/02 07:12:05;;;;;;;10.93;9.88;;;26.10;99.90;;;;;;5101082;28;20285;-75
2021/07/02 07:14:33;;;;;;;10.52;9.48;;;25.10;99.90;;;;;;5097798;28;20233;-76
2021/07/02 07:17:01;;;;;;;11.07;9.98;;;25.50;99.90;;;;;;5101820;28;20198;-75
2021/07/02 07:19:29;;;;;;;11.00;9.90;;;25.10;99.90;;;;;;5096140;28;20222;-75
2021/07/02 07:21:56;;;;;;;11.23;9.98;;;25.50;99.90;;;;;;5104200;28;20573;-76
2021/07/02 07:24:25;;;;;;;9.75;8.85;;;25.70;99.90;;;;;;5100194;28;20232;-75
2021/07/02 07:26:51;;;;;;;11.23;9.60;;;25.60;99.90;;;;;;5096049;28;20285;-75
2021/07/02 07:29:18;;;;;;;10.35;9.15;;;25.50;99.90;;;;;;5100257;28;20647;-76
2021/07/02 07:31:45;;;;;;;10.85;9.80;;;25.30;99.90;;;;;;5099483;28;20277;-76
2021/07/02 07:34:14;;;;;;;9.27;8.38;;;25.80;99.90;;;;;;5095877;28;20249;-76
2021/07/02 07:36:41;;;;;;;9.77;8.88;;;26.20;99.90;;;;;;5097179;28;20198;-75
2021/07/02 07:39:08;;;;;;;10.40;9.35;;;26.10;99.90;;;;;;5097132;28;20214;-76
2021/07/02 07:41:36;;;;;;;9.70;8.63;;;25.60;99.90;;;;;;5099619;28;20217;-76
2021/07/02 07:44:03;;;;;;;8.98;8.07;;;25.80;99.90;;;;;;5099945;28;20294;-75
2021/07/02 07:46:31;;;;;;;9.30;7.97;;;26.00;99.90;;;;;;5097872;28;20284;-76
2021/07/02 07:48:57;;;;;;;10.18;8.23;;;26.10;99.90;;;;;;5097409;28;20274;-77
2021/07/02 07:51:43;;;;;;;9.07;8.20;;;26.10;99.90;;;;;;5100324;28;20767;-76
2021/07/02 07:54:10;;;;;;;9.02;8.13;;;26.30;99.90;;;;;;5098240;28;20603;-75
2021/07/02 07:56:38;;;;;;;8.13;7.43;;;26.30;99.90;;;;;;5098557;28;20641;-76
2021/07/02 07:59:05;;;;;;;9.73;7.63;;;26.20;99.90;;;;;;5096672;28;20276;-75
2021/07/02 08:01:32;;;;;;;8.23;7.43;;;27.00;99.90;;;;;;5101357;28;20226;-76
2021/07/02 08:03:59;;;;;;;7.47;6.63;;;27.30;99.90;;;;;;5089649;28;20230;-76
2021/07/02 08:06:26;;;;;;;8.18;6.97;;;27.40;99.90;;;;;;5089893;28;20234;-76
2021/07/02 08:08:53;;;;;;;9.35;6.63;;;27.40;99.90;;;;;;5089546;28;20282;-76
2021/07/02 08:11:20;;;;;;;6.90;6.22;;;27.80;99.90;;;;;;5090628;28;20202;-76
2021/07/02 08:13:48;;;;;;;7.43;5.65;;;27.70;99.90;;;;;;5089720;28;20194;-77
2021/07/02 08:16:15;;;;;;;6.55;5.95;;;26.50;99.90;;;;;;5095681;28;20745;-77
2021/07/02 08:18:42;;;;;;;6.97;6.28;;;26.70;99.90;;;;;;5101573;28;20245;-77
2021/07/02 08:21:09;;;;;;;6.93;6.30;;;26.80;99.90;;;;;;5096170;28;20305;-77
2021/07/02 08:23:35;;;;;;;9.38;6.90;;;25.70;99.90;;;;;;5097478;28;20281;-76
2021/07/02 08:26:02;;;;;;;9.38;7.00;;;25.40;99.90;;;;;;5104686;28;20284;-77
2021/07/02 08:31:15;;;;;;;7.03;6.32;;;24.80;99.90;;;;;;5107382;28;20254;-77
2021/07/02 08:33:41;;;;;;;7.53;6.32;;;25.30;99.90;;;;;;5103089;28;20610;-77
2021/07/02 08:36:08;;;;;;;7.47;6.50;;;25.70;99.90;;;;;;5101220;28;20276;-76
2021/07/02 08:38:36;;;;;;;7.75;6.95;;;25.10;99.90;;;;;;5099813;28;20249;-76
2021/07/02 08:41:04;;;;;;;7.30;6.60;;;24.60;99.90;;;;;;5100707;28;20293;-76
2021/07/02 08:43:31;;;;;;;7.30;6.47;;;24.30;99.90;;;;;;5102499;28;20657;-77
2021/07/02 08:45:58;;;;;;;7.15;6.50;;;23.90;99.90;;;;;;5099919;28;20281;-77
2021/07/02 08:48:27;;;;;;;7.93;6.30;;;24.50;99.90;;;;;;5107202;28;20277;-76
2021/07/02 08:50:54;;;;;;;7.38;6.32;;;24.40;99.90;;;;;;5103870;28;20225;-76
2021/07/02 08:53:22;;;;;;;7.40;6.70;;;25.00;99.90;;;;;;5104874;28;20197;-76
2021/07/02 08:55:49;;;;;;;9.30;6.53;;;24.70;99.90;;;;;;5098889;28;20221;-76
2021/07/02 08:58:16;;;;;;;12.80;7.38;;;25.20;99.90;;;;;;5096773;28;20312;-75
2021/07/02 09:00:44;;;;;;;9.73;6.70;;;23.60;99.90;;;;;;5094546;28;20237;-75
2021/07/02 09:03:29;;;;;;;7.60;6.35;;;23.50;99.90;;;;;;5099787;28;20377;-76
2021/07/02 09:05:56;;;;;;;8.48;6.43;;;25.10;99.90;;;;;;5098621;28;20240;-76
2021/07/02 09:08:25;;;;;;;9.25;7.20;;;25.10;99.90;;;;;;5100899;28;20281;-76
2021/07/02 09:10:51;;;;;;;7.78;6.60;;;25.40;99.90;;;;;;5104955;27;20216;-76
2021/07/02 09:13:18;;;;;;;7.30;6.60;;;26.80;99.90;;;;;;5102917;28;20285;-76
2021/07/02 09:15:46;;;;;;;10.23;6.93;;;28.40;99.90;;;;;;5101407;28;20218;-75
2021/07/02 09:18:14;;;;;;;9.13;7.85;;;26.70;99.90;;;;;;5106732;28;20218;-75
2021/07/02 09:20:44;;;;;;;8.18;7.28;;;25.00;99.90;;;;;;5102149;27;20297;-75
2021/07/02 09:23:13;;;;;;;8.00;7.05;;;25.30;99.90;;;;;;5094305;28;20285;-75
2021/07/02 09:25:41;;;;;;;8.32;7.35;;;26.70;99.90;;;;;;5109034;28;20288;-75
2021/07/02 09:28:09;;;;;;;8.52;7.63;;;26.20;99.90;;;;;;5102291;28;20194;-75
2021/07/02 09:30:38;;;;;;;8.40;7.43;;;26.10;99.90;;;;;;5098155;28;20249;-76
2021/07/02 09:33:07;;;;;;;6.53;5.95;;;28.00;99.90;;;;;;5097944;28;20238;-76
2021/07/02 09:35:38;;;;;;;8.40;6.57;;;30.90;99.90;;;;;;5101196;28;20671;-76
2021/07/02 09:38:06;;;;;;;7.65;6.85;;;31.00;99.90;;;;;;5095732;28;20268;-76
2021/07/02 09:40:36;;;;;;;7.82;6.10;;;30.80;99.90;;;;;;5103216;28;20206;-76
2021/07/02 09:43:06;;;;;;;7.97;6.97;;;31.40;99.90;;;;;;5098750;28;20229;-76
2021/07/02 09:45:35;;;;;;;8.00;7.30;;;32.20;99.90;;;;;;5093557;28;20285;-76
2021/07/02 09:48:09;;;;;;;7.72;7.03;;;31.50;99.90;;;;;;5108627;28;20288;-76
2021/07/02 09:50:37;;;;;;;7.35;6.53;;;29.50;99.90;;;;;;5096990;28;20236;-76
2021/07/02 09:53:09;;;;;;;8.35;7.28;;;31.20;99.90;;;;;;5101986;28;20280;-77
2021/07/02 09:55:43;;;;;;;8.35;7.65;;;30.70;99.90;;;;;;5098557;28;20202;-76
2021/07/02 09:58:12;;;;;;;8.18;6.10;;;30.80;99.90;;;;;;5099460;28;20234;-76
2021/07/02 10:00:47;;;;;;;7.65;6.85;;;31.70;99.90;;;;;;5111051;28;20299;-75
2021/07/02 10:03:16;;;;;;;8.85;7.28;;;29.70;99.90;;;;;;5093981;28;20199;-76
2021/07/02 10:05:57;;;;;;;7.20;6.50;;;28.30;99.90;;;;;;5108848;28;20296;-76
2021/07/02 10:08:28;;;;;;;7.95;7.15;;;28.10;99.90;;;;;;5106928;28;20391;-76
2021/07/02 10:10:57;;;;;;;10.02;7.70;;;27.10;99.90;;;;;;5100302;28;20221;-76
2021/07/02 10:13:26;;;;;;;9.15;8.27;;;27.00;99.90;;;;;;5102733;28;20664;-76
2021/07/02 10:15:55;;;;;;;8.65;7.82;;;27.60;99.90;;;;;;5096024;28;20300;-76
2021/07/02 10:18:25;;;;;;;8.40;7.60;;;27.90;99.90;;;;;;5095181;28;20241;-76
2021/07/02 10:20:54;;;;;;;8.18;7.38;;;28.10;99.90;;;;;;5098984;28;20241;-75
2021/07/02 10:23:28;;;;;;;8.93;7.00;;;27.00;99.90;;;;;;5097177;28;20233;-76
2021/07/02 10:25:57;;;;;;;8.10;7.30;;;27.40;99.90;;;;;;5092437;28;20190;-76
2021/07/02 10:28:26;;;;;;;6.80;6.20;;;28.10;99.90;;;;;;5110047;28;20205;-76
2021/07/02 10:30:53;;;;;;;8.43;7.55;;;28.60;99.90;;;;;;5112031;28;20198;-76
2021/07/02 10:33:21;;;;;;;9.73;8.73;;;27.60;99.90;;;;;;5111686;28;20198;-76
2021/07/02 10:35:53;;;;;;;13.35;9.20;;;26.10;99.90;;;;;;5111671;28;20288;-76
2021/07/02 10:38:20;;;;;;;9.75;8.75;;;24.50;99.90;;;;;;5107268;28;20283;-76
2021/07/02 10:40:48;;;;;;;8.55;7.65;;;24.40;99.90;;;;;;5109287;28;20626;-76
2021/07/02 10:43:21;;;;;;;10.57;9.48;;;24.70;99.90;;;;;;5107489;28;20254;-76
2021/07/02 10:46:17;;;;;;;10.55;9.38;;;26.00;99.90;;;;;;5106165;28;20276;-76
2021/07/02 10:48:55;;;;;;;10.38;9.25;;;27.10;99.90;;;;;;5097493;28;20232;-76
2021/07/02 10:51:43;;;;;;;11.25;9.35;;;26.80;99.90;;;;;;5098438;28;20649;-76
2021/07/02 10:54:35;;;;;;;10.55;8.90;;;26.90;99.90;;;;;;5098670;28;20225;-76
2021/07/02 10:57:06;;;;;;;10.30;8.70;;;27.60;99.90;;;;;;5102781;28;20281;-76
2021/07/02 11:00:10;;;;;;;10.60;9.50;;;28.00;99.90;;;;;;5096361;28;20305;-76
2021/07/02 11:02:40;;;;;;;9.60;8.70;;;26.50;99.90;;;;;;5047871;28;20261;-76
2021/07/02 11:05:28;;;;;;;11.35;9.07;;;26.80;99.90;;;;;;5048914;28;20203;-76
2021/07/02 11:07:55;;;;;;;9.43;8.45;;;26.10;99.90;;;;;;5031912;28;20668;-76
2021/07/02 11:10:23;;;;;;;10.13;9.13;;;28.20;99.90;;;;;;5049000;28;20200;-77
2021/07/02 11:13:02;;;;;;;11.02;8.95;;;28.50;99.90;;;;;;5048772;28;20333;-76
2021/07/02 11:15:30;;;;;;;8.88;8.02;;;29.60;99.90;;;;;;5054040;28;20293;-76
2021/07/02 11:18:13;;;;;;;8.60;7.82;;;31.30;99.90;;;;;;5068458;28;20238;-76
2021/07/02 11:20:41;;;;;;;10.75;8.60;;;30.50;99.90;;;;;;5057189;28;20229;-76
2021/07/02 11:23:22;;;;;;;9.75;8.50;;;29.20;99.90;;;;;;5068206;28;20591;-76
2021/07/02 11:26:08;;;;;;;9.70;8.52;;;28.00;99.90;;;;;;5048317;28;20231;-76
2021/07/02 11:28:45;;;;;;;8.20;7.30;;;28.00;99.90;;;;;;5048539;28;20285;-76
2021/07/02 11:31:13;;;;;;;7.65;6.93;;;27.90;99.90;;;;;;5058450;28;20237;-76
2021/07/02 11:33:41;;;;;;;9.00;8.20;;;27.80;99.90;;;;;;5076655;28;20274;-76
2021/07/02 11:36:11;;;;;;;8.85;7.95;;;26.60;99.90;;;;;;5091398;28;20202;-76
2021/07/02 11:38:49;;;;;;;10.98;8.32;;;26.60;99.90;;;;;;5091120;28;20199;-76
2021/07/02 11:41:29;;;;;;;11.35;8.38;;;27.40;99.90;;;;;;5091248;28;20237;-76
2021/07/02 11:44:02;;;;;;;9.82;8.93;;;27.20;99.90;;;;;;5104190;28;20214;-76
2021/07/02 11:46:30;;;;;;;9.15;8.23;;;27.30;99.90;;;;;;5111240;28;20197;-76
2021/07/02 11:48:58;;;;;;;9.50;8.45;;;26.80;99.90;;;;;;5111144;28;20259;-76
2021/07/02 11:51:26;;;;;;;11.05;8.80;;;26.80;99.90;;;;;;5111530;28;20557;-76
2021/07/02 11:53:55;;;;;;;9.45;8.60;;;26.50;99.90;;;;;;5111222;28;20204;-76
2021/07/02 11:56:24;;;;;;;10.57;9.57;;;26.20;99.90;;;;;;5110442;28;20233;-76
2021/07/02 11:58:52;;;;;;;10.63;9.63;;;25.90;99.90;;;;;;5096678;28;20257;-76
2021/07/02 12:01:22;;;;;;;10.50;9.48;;;26.30;99.90;;;;;;5106846;28;20592;-76
2021/07/02 12:03:50;;;;;;;11.25;9.38;;;26.20;99.90;;;;;;5101775;28;20259;-76
2021/07/02 12:06:25;;;;;;;11.38;9.85;;;26.20;99.90;;;;;;5097569;28;20199;-76
2021/07/02 12:08:58;;;;;;;9.52;8.55;;;26.40;99.90;;;;;;5098781;28;20201;-76
2021/07/02 12:11:34;;;;;;;10.40;9.30;;;27.50;99.90;;;;;;5102240;28;21647;-76
2021/07/02 12:14:02;;;;;;;8.88;7.97;;;27.40;99.90;;;;;;5098145;28;20230;-76
2021/07/02 12:16:33;;;;;;;11.38;9.18;;;27.50;99.90;;;;;;5101854;28;20281;-76
2021/07/02 12:19:00;;;;;;;10.18;9.20;;;26.60;99.90;;;;;;5101075;28;20194;-76
2021/07/02 12:21:30;;;;;;;11.02;9.93;;;26.00;99.90;;;;;;5102032;28;20252;-75
2021/07/02 12:23:59;;;;;;;10.55;9.45;;;25.80;99.90;;;;;;5105509;27;20198;-76
2021/07/02 12:26:28;;;;;;;11.93;9.32;;;25.40;99.90;;;;;;5105125;28;20225;-75
2021/07/02 12:28:58;;;;;;;12.32;10.40;;;26.00;99.90;;;;;;5103000;28;20232;-76
2021/07/02 12:31:27;;;;;;;10.50;9.40;;;27.60;99.90;;;;;;5102918;28;20248;-76
2021/07/02 12:33:55;;;;;;;10.90;9.48;;;26.60;99.90;;;;;;5108115;28;20935;-77
2021/07/02 12:36:23;;;;;;;11.18;10.07;;;26.80;99.90;;;;;;5110707;28;20736;-76
2021/07/02 12:39:11;;;;;;;13.00;10.45;;;26.20;99.90;;;;;;5098780;28;20229;-76
2021/07/02 12:41:44;;;;;;;11.20;10.13;;;25.60;99.90;;;;;;5106685;27;20217;-76
2021/07/02 12:44:13;;;;;;;11.18;10.05;;;26.40;99.90;;;;;;5112468;28;20233;-77